createdAt,value
2023-02-09T00:01:19.378Z,10.1
2023-02-09T00:04:21.351Z,10.8
2023-02-09T00:07:23.317Z,11
2023-02-09T00:10:25.277Z,10.1
2023-02-09T00:13:27.241Z,10.7
2023-02-09T00:16:29.274Z,11.8
2023-02-09T00:19:33.161Z,12
2023-02-09T00:22:33.131Z,12.3
2023-02-09T00:25:35.101Z,11.1
2023-02-09T00:28:37.047Z,10.9
2023-02-09T00:31:39.071Z,12.1
2023-02-09T00:34:40.990Z,12.2
2023-02-09T00:37:42.937Z,11.3
2023-02-09T00:40:45.226Z,11.8
2023-02-09T00:43:46.857Z,12.8
2023-02-09T00:46:48.829Z,12.8
2023-02-09T00:49:50.764Z,13
2023-02-09T00:52:52.737Z,12.8
2023-02-09T00:55:54.705Z,12.6
2023-02-09T00:58:56.655Z,12.1
2023-02-09T01:01:58.606Z,11.1
2023-02-09T01:05:00.744Z,11.5
2023-02-09T01:08:02.528Z,11.4
2023-02-09T01:11:04.485Z,11.8
2023-02-09T01:14:06.456Z,10.5
2023-02-09T01:17:08.529Z,13
2023-02-09T01:20:10.368Z,11.2
2023-02-09T01:23:12.334Z,11.2
2023-02-09T01:26:14.289Z,12.2
2023-02-09T01:29:16.247Z,11.2
2023-02-09T01:32:18.204Z,10.9
2023-02-09T01:35:20.141Z,11.7
2023-02-09T01:38:22.136Z,10.6
2023-02-09T01:41:24.161Z,12
2023-02-09T01:44:26.060Z,12.4
2023-02-09T01:47:28.011Z,13
2023-02-09T01:50:29.983Z,12.3
2023-02-09T01:53:31.936Z,12
2023-02-09T01:56:33.884Z,11.7
2023-02-09T01:59:35.855Z,11.4
2023-02-09T02:02:37.813Z,11.7
2023-02-09T02:05:39.768Z,12.3
2023-02-09T02:08:41.720Z,11.7
2023-02-09T02:11:43.677Z,12
2023-02-09T02:14:45.649Z,11.5
2023-02-09T02:17:47.603Z,11
2023-02-09T02:20:49.549Z,11.5
2023-02-09T02:23:51.536Z,12.2
2023-02-09T02:26:53.484Z,12.9
2023-02-09T02:29:55.476Z,12.3
2023-02-09T02:32:57.438Z,13.1
2023-02-09T02:35:59.386Z,13.3
2023-02-09T02:39:01.356Z,13
2023-02-09T02:42:03.312Z,11.8
2023-02-09T02:45:05.287Z,11.9
2023-02-09T02:48:07.245Z,11.7
2023-02-09T02:51:09.266Z,12.1
2023-02-09T02:54:11.174Z,11.8
2023-02-09T02:57:13.122Z,11.2
2023-02-09T03:00:15.103Z,12.3
2023-02-09T03:03:17.055Z,12.7
2023-02-09T03:06:19.026Z,11.7
2023-02-09T03:09:21.001Z,12.6
2023-02-09T03:12:22.957Z,11.9
2023-02-09T03:15:24.948Z,12
2023-02-09T03:18:26.903Z,11.7
2023-02-09T03:21:28.871Z,12
2023-02-09T03:24:30.835Z,12.7
2023-02-09T03:27:32.800Z,13.6
2023-02-09T03:30:34.823Z,12.3
2023-02-09T03:33:36.725Z,12.1
2023-02-09T03:36:38.688Z,13.1
2023-02-09T03:39:40.672Z,11.9
2023-02-09T03:42:42.626Z,13.1
2023-02-09T03:45:44.584Z,12.7
2023-02-09T03:48:46.546Z,11.4
2023-02-09T03:51:48.513Z,11.2
2023-02-09T03:54:50.680Z,12.2
2023-02-09T03:57:52.418Z,12
2023-02-09T04:00:54.461Z,12.6
2023-02-09T04:03:56.359Z,12.3
2023-02-09T04:06:58.320Z,12.3
2023-02-09T04:10:00.374Z,11.1
2023-02-09T04:13:02.215Z,14.4
2023-02-09T04:16:04.225Z,12.6
2023-02-09T04:19:06.150Z,12.6
2023-02-09T04:22:08.115Z,13.4
2023-02-09T04:25:10.108Z,13.2
2023-02-09T04:28:12.104Z,12.2
2023-02-09T04:31:14.137Z,12.1
2023-02-09T04:34:15.991Z,11.4
2023-02-09T04:37:17.944Z,13.1
2023-02-09T04:40:19.917Z,13.4
2023-02-09T04:43:21.870Z,12.2
2023-02-09T04:46:23.833Z,12.6
2023-02-09T04:49:25.820Z,12.9
2023-02-09T04:52:27.775Z,13.2
2023-02-09T04:55:29.740Z,12.4
2023-02-09T04:58:31.679Z,12.5
2023-02-09T05:01:33.720Z,13.7
2023-02-09T05:04:35.598Z,13.2
2023-02-09T05:07:37.541Z,14
2023-02-09T05:10:39.521Z,14.1
2023-02-09T05:13:41.480Z,14.6
2023-02-09T05:16:43.517Z,14
2023-02-09T05:19:45.399Z,12.2
2023-02-09T05:22:48.803Z,13.1
2023-02-09T05:25:49.324Z,13.1
2023-02-09T05:28:51.266Z,13.2
2023-02-09T05:31:53.307Z,14.3
2023-02-09T05:34:55.191Z,13.4
2023-02-09T05:37:57.157Z,13.2
2023-02-09T05:40:59.121Z,13.1
2023-02-09T05:44:01.092Z,13.7
2023-02-09T05:47:03.025Z,14.9
2023-02-09T05:50:04.990Z,15.2
2023-02-09T05:53:06.943Z,13.9
2023-02-09T05:56:08.905Z,13.3
2023-02-09T05:59:10.852Z,13.4
2023-02-09T06:02:12.893Z,13.3
2023-02-09T06:05:14.764Z,13.5
2023-02-09T06:08:16.735Z,13.5
2023-02-09T06:11:18.672Z,14.3
2023-02-09T06:14:20.834Z,12.9
2023-02-09T06:17:22.602Z,13.1
2023-02-09T06:20:24.565Z,13.8
2023-02-09T06:23:26.521Z,14
2023-02-09T06:26:28.477Z,13.1
2023-02-09T06:29:30.437Z,13.3
2023-02-09T06:32:32.396Z,14.2
2023-02-09T06:35:34.372Z,13.8
2023-02-09T06:38:36.324Z,12.9
2023-02-09T06:41:38.268Z,12.9
2023-02-09T06:44:40.223Z,12.5
2023-02-09T06:47:42.183Z,13.1
2023-02-09T06:50:44.604Z,14.1
2023-02-09T06:53:46.102Z,14.1
2023-02-09T06:56:48.060Z,12.3
2023-02-09T06:59:50.014Z,14.7
2023-02-09T07:02:52.033Z,14.4
2023-02-09T07:05:53.959Z,13.9
2023-02-09T07:08:55.933Z,14.5
2023-02-09T07:11:57.883Z,13.5
2023-02-09T07:14:59.820Z,13.5
2023-02-09T07:18:01.830Z,14.3
2023-02-09T07:21:03.790Z,12.4
2023-02-09T07:24:05.728Z,13.2
2023-02-09T07:27:07.700Z,15
2023-02-09T07:30:09.644Z,12.8
2023-02-09T07:33:11.601Z,14.6
2023-02-09T07:36:13.556Z,14
2023-02-09T07:39:15.529Z,13.4
2023-02-09T07:42:17.474Z,14.2
2023-02-09T07:45:19.429Z,12.9
2023-02-09T07:48:21.457Z,13.5
2023-02-09T07:51:23.386Z,13.1
2023-02-09T07:54:25.341Z,15
2023-02-09T07:57:27.274Z,12.7
2023-02-09T08:00:29.234Z,12.8
2023-02-09T08:03:31.198Z,13.5
2023-02-09T08:06:41.255Z,14.3
2023-02-09T08:09:35.468Z,14.7
2023-02-09T08:12:37.069Z,12.5
2023-02-09T08:15:39.015Z,13.5
2023-02-09T08:18:40.987Z,13.8
2023-02-09T08:21:42.933Z,14.2
2023-02-09T08:24:45.000Z,14.2
2023-02-09T08:27:47.057Z,13.5
2023-02-09T08:30:48.966Z,13.7
2023-02-09T08:33:50.873Z,14.3
2023-02-09T08:36:52.832Z,14.3
2023-02-09T08:39:54.775Z,13.4
2023-02-09T08:42:56.729Z,14.2
2023-02-09T08:45:58.792Z,15.1
2023-02-09T08:49:00.661Z,15.2
2023-02-09T08:52:02.615Z,14.8
2023-02-09T08:55:04.589Z,14.8
2023-02-09T08:58:06.523Z,14.7
2023-02-09T09:01:08.495Z,14.4
2023-02-09T09:04:10.468Z,13.8
2023-02-09T09:07:12.417Z,15.9
2023-02-09T09:10:14.399Z,14.4
2023-02-09T09:13:16.348Z,13.6
2023-02-09T09:16:18.338Z,14.9
2023-02-09T09:19:20.253Z,14.4
2023-02-09T09:22:22.200Z,15.9
2023-02-09T09:25:24.170Z,14.1
2023-02-09T09:28:26.146Z,14.5
2023-02-09T09:31:28.208Z,14.2
2023-02-09T09:34:30.059Z,13.7
2023-02-09T09:37:32.021Z,15
2023-02-09T09:40:34.010Z,12.9
2023-02-09T09:43:35.962Z,14.2
2023-02-09T09:46:38.000Z,12.8
2023-02-09T09:49:39.912Z,13.8
2023-02-09T09:52:41.854Z,14.2
2023-02-09T09:55:43.828Z,16.2
2023-02-09T09:58:45.779Z,14.4
2023-02-09T10:01:47.741Z,13.4
2023-02-09T10:04:49.779Z,13.7
2023-02-09T10:07:51.804Z,13.3
2023-02-09T10:10:53.632Z,13.2
2023-02-09T10:13:55.616Z,13.2
2023-02-09T10:16:57.577Z,14.1
2023-02-09T10:19:59.576Z,12.8
2023-02-09T10:23:01.490Z,13.9
2023-02-09T10:26:03.459Z,13.2
2023-02-09T10:29:05.411Z,14.7
2023-02-09T10:32:07.377Z,14
2023-02-09T10:35:09.349Z,14.9
2023-02-09T10:38:11.291Z,13.3
2023-02-09T10:41:13.241Z,13.5
2023-02-09T10:44:15.209Z,13.7
2023-02-09T10:47:17.169Z,14.6
2023-02-09T10:50:19.269Z,13.6
2023-02-09T10:53:21.095Z,14.1
2023-02-09T10:56:23.042Z,14.9
2023-02-09T10:59:24.993Z,12.9
2023-02-09T11:02:26.966Z,12.6
2023-02-09T11:05:28.913Z,12.9
2023-02-09T11:08:30.887Z,14.8
2023-02-09T11:11:32.858Z,13.2
2023-02-09T11:14:34.804Z,14.7
2023-02-09T11:17:36.793Z,15.1
2023-02-09T11:20:38.721Z,14.2
2023-02-09T11:23:40.706Z,14.6
2023-02-09T11:26:42.691Z,15
2023-02-09T11:29:44.617Z,15.3
2023-02-09T11:32:46.627Z,16
2023-02-09T11:35:48.581Z,14.7
2023-02-09T11:38:52.884Z,15
2023-02-09T11:41:52.804Z,14.3
2023-02-09T11:44:54.760Z,13.9
2023-02-09T11:47:56.705Z,12.4
2023-02-09T11:50:58.659Z,15.9
2023-02-09T11:54:00.654Z,14.3
2023-02-09T11:57:02.613Z,16.3
2023-02-09T12:00:04.647Z,15.4
2023-02-09T12:03:06.673Z,14.1
2023-02-09T12:06:08.586Z,13
2023-02-09T12:09:10.534Z,16
2023-02-09T12:12:12.472Z,16.7
2023-02-09T12:15:14.479Z,15.6
2023-02-09T12:18:19.319Z,16.4
2023-02-09T12:21:21.300Z,14.4
2023-02-09T12:24:23.249Z,14.2
2023-02-09T12:27:25.224Z,15.6
2023-02-09T12:30:27.187Z,14.1
2023-02-09T12:33:29.160Z,14.5
2023-02-09T12:36:31.284Z,15.5
2023-02-09T12:39:33.312Z,15.4
2023-02-09T12:42:35.258Z,14.8
2023-02-09T12:45:37.385Z,14.4
2023-02-09T12:48:39.244Z,15
2023-02-09T12:51:41.221Z,15.3
2023-02-09T12:54:43.215Z,14.6
2023-02-09T12:57:48.177Z,15.4
2023-02-09T13:00:50.191Z,15.9
2023-02-09T13:03:52.124Z,14.3
2023-02-09T13:06:54.059Z,14.7
2023-02-09T13:09:56.018Z,13.1
2023-02-09T13:12:57.973Z,14.1
2023-02-09T13:16:00.009Z,14.2
2023-02-09T13:19:01.982Z,13.4
2023-02-09T13:22:03.956Z,16.1
2023-02-09T13:25:05.981Z,14.4
2023-02-09T13:28:08.010Z,14.2
2023-02-09T13:31:09.893Z,15.1
2023-02-09T13:34:11.862Z,13.3
2023-02-09T13:37:13.829Z,14.8
2023-02-09T13:40:15.863Z,14.4
2023-02-09T13:43:17.869Z,15.5
2023-02-09T13:46:19.815Z,13.3
2023-02-09T13:49:21.860Z,16
2023-02-09T13:52:23.877Z,15.2
2023-02-09T13:55:25.772Z,14.5
2023-02-09T13:58:27.857Z,13.5
2023-02-09T14:01:29.780Z,15.4
2023-02-09T14:04:31.716Z,15.6
2023-02-09T14:07:33.706Z,13.1
2023-02-09T14:10:35.878Z,13
2023-02-09T14:13:37.816Z,14.7
2023-02-09T14:16:52.489Z,14.6
2023-02-09T14:19:41.871Z,12.8
2023-02-09T14:22:43.734Z,13.7
2023-02-09T14:25:46.093Z,13.8
2023-02-09T14:28:47.661Z,12.3
2023-02-09T14:31:49.651Z,13.3
2023-02-09T14:34:51.593Z,14
2023-02-09T14:37:53.727Z,14
2023-02-09T14:40:55.820Z,13.8
2023-02-09T14:43:57.651Z,13
2023-02-09T14:46:59.613Z,14
2023-02-09T14:50:01.579Z,14.1
2023-02-09T14:53:03.507Z,13.1
2023-02-09T14:56:05.488Z,13.6
2023-02-09T14:59:07.447Z,15.1
2023-02-09T15:02:09.411Z,14.4
2023-02-09T15:05:11.381Z,15.1
2023-02-09T15:08:13.408Z,12.6
2023-02-09T15:11:15.378Z,15.1
2023-02-09T15:14:17.331Z,14.5
2023-02-09T15:17:19.405Z,13.6
2023-02-09T15:20:21.426Z,12.9
2023-02-09T15:23:23.356Z,14.8
2023-02-09T15:26:25.349Z,15.3
2023-02-09T15:29:27.356Z,14
2023-02-09T15:32:29.389Z,13.7
2023-02-09T15:35:31.314Z,12.4
2023-02-09T15:38:33.279Z,13.8
2023-02-09T15:41:36.264Z,14.3
2023-02-09T15:44:37.186Z,12.9
2023-02-09T15:47:39.183Z,12
2023-02-09T15:50:41.159Z,13.3
2023-02-09T15:53:43.102Z,14.9
2023-02-09T15:56:45.086Z,13.8
2023-02-09T15:59:47.020Z,14.1
2023-02-09T16:02:49.061Z,13.8
2023-02-09T16:05:50.946Z,13.4
2023-02-09T16:08:53.654Z,14.3
2023-02-09T16:11:54.894Z,13.8
2023-02-09T16:14:56.831Z,13
2023-02-09T16:17:58.795Z,13.3
2023-02-09T16:21:00.754Z,13.5
2023-02-09T16:24:02.743Z,14.3
2023-02-09T16:27:04.708Z,13.4
2023-02-09T16:30:06.640Z,15
2023-02-09T16:33:08.668Z,13
2023-02-09T16:36:11.734Z,13.6
2023-02-09T16:39:13.543Z,15.7
2023-02-09T16:42:15.504Z,13.3
2023-02-09T16:45:17.474Z,15.1
2023-02-09T16:48:19.438Z,15.5
2023-02-09T16:51:21.408Z,15
2023-02-09T16:54:23.342Z,14.1
2023-02-09T16:57:25.352Z,14.6
2023-02-09T17:00:27.273Z,13.9
2023-02-09T17:03:29.308Z,13.3
2023-02-09T17:06:31.263Z,13.5
2023-02-09T17:09:33.246Z,13.8
2023-02-09T17:12:35.293Z,14.3
2023-02-09T17:15:37.284Z,13.2
2023-02-09T17:18:39.207Z,15.1
2023-02-09T17:21:41.180Z,12.3
2023-02-09T17:24:43.138Z,14.2
2023-02-09T17:27:45.131Z,16
2023-02-09T17:30:47.106Z,15.3
2023-02-09T17:33:49.039Z,13.6
2023-02-09T17:36:51.024Z,14.6
2023-02-09T17:39:53.041Z,14.8
2023-02-09T17:42:55.016Z,14.6
2023-02-09T17:45:56.998Z,14.9
2023-02-09T17:48:58.903Z,16.5
2023-02-09T17:52:00.895Z,16.3
2023-02-09T17:55:02.902Z,17.1
2023-02-09T17:58:04.873Z,16.9
2023-02-09T18:01:06.897Z,16.3
2023-02-09T18:04:08.831Z,15.9
2023-02-09T18:07:10.805Z,14.8
2023-02-09T18:10:12.838Z,14.2
2023-02-09T18:13:14.754Z,20.5
2023-02-09T18:16:16.704Z,17.9
2023-02-09T18:19:18.702Z,20
2023-02-09T18:22:20.655Z,19.4
2023-02-09T18:25:22.657Z,16.5
2023-02-09T18:28:24.588Z,16
2023-02-09T18:31:26.640Z,14.9
2023-02-09T18:34:28.506Z,16.8
2023-02-09T18:37:30.495Z,16.8
2023-02-09T18:40:32.433Z,13.9
2023-02-09T18:43:34.425Z,15.2
2023-02-09T18:46:36.378Z,15.9
2023-02-09T18:49:38.346Z,16.8
2023-02-09T18:52:40.316Z,15.6
2023-02-09T18:55:42.271Z,15.6
2023-02-09T18:58:44.252Z,14.4
2023-02-09T19:01:46.271Z,14.9
2023-02-09T19:04:48.182Z,15.5
2023-02-09T19:07:50.140Z,18.8
2023-02-09T19:10:52.147Z,14.3
2023-02-09T19:13:54.082Z,14.2
2023-02-09T19:16:56.045Z,16.9
2023-02-09T19:19:58.030Z,14.4
2023-02-09T19:23:00.010Z,18.8
2023-02-09T19:26:01.968Z,16.9
2023-02-09T19:29:03.932Z,14.4
2023-02-09T19:32:05.892Z,16.1
2023-02-09T19:35:07.882Z,18.4
2023-02-09T19:38:09.808Z,19.5
2023-02-09T19:41:11.784Z,18.6
2023-02-09T19:44:13.777Z,17.3
2023-02-09T19:47:15.696Z,17.2
2023-02-09T19:50:17.675Z,18.7
2023-02-09T19:53:19.632Z,18.3
2023-02-09T19:56:21.600Z,18
2023-02-09T19:59:23.758Z,18.4
2023-02-09T20:02:25.499Z,16
2023-02-09T20:05:27.465Z,16.9
2023-02-09T20:08:29.431Z,15.9
2023-02-09T20:11:31.391Z,16.4
2023-02-09T20:14:33.534Z,18.4
2023-02-09T20:17:35.280Z,18.7
2023-02-09T20:20:37.237Z,17.9
2023-02-09T20:23:39.206Z,17.3
2023-02-09T20:26:41.170Z,16.8
2023-02-09T20:29:43.134Z,16.5
2023-02-09T20:32:45.070Z,18.2
2023-02-09T20:35:47.037Z,17.3
2023-02-09T20:38:49.002Z,18.7
2023-02-09T20:41:50.961Z,17.8
2023-02-09T20:44:52.927Z,17.9
2023-02-09T20:47:54.911Z,18
2023-02-09T20:50:56.833Z,18.6
2023-02-09T20:53:58.817Z,18
2023-02-09T20:57:00.742Z,19.1
2023-02-09T21:00:02.819Z,20
2023-02-09T21:03:04.677Z,18.6
2023-02-09T21:06:06.647Z,19
2023-02-09T21:09:08.598Z,17.7
2023-02-09T21:12:10.561Z,17.7
2023-02-09T21:15:12.504Z,18
2023-02-09T21:18:14.465Z,18.2
2023-02-09T21:21:16.430Z,19.6
2023-02-09T21:24:18.381Z,17.2
2023-02-09T21:27:20.337Z,16.4
2023-02-09T21:30:22.295Z,19.7
2023-02-09T21:33:24.258Z,17.6
2023-02-09T21:36:26.219Z,18.6
2023-02-09T21:39:28.180Z,18.9
2023-02-09T21:42:30.125Z,20.6
2023-02-09T21:45:32.117Z,19.1
2023-02-09T21:48:34.047Z,19
2023-02-09T21:51:36.009Z,19.4
2023-02-09T21:54:37.973Z,19.2
2023-02-09T21:57:39.922Z,19
2023-02-09T22:00:41.895Z,17.3
2023-02-09T22:03:43.866Z,19.5
2023-02-09T22:06:45.815Z,20.7
2023-02-09T22:09:47.782Z,18.1
2023-02-09T22:12:49.775Z,18.5
2023-02-09T22:15:51.699Z,17
2023-02-09T22:18:53.754Z,20.4
2023-02-09T22:21:55.598Z,22.2
2023-02-09T22:24:57.562Z,20.1
2023-02-09T22:27:59.574Z,20.3
2023-02-09T22:31:01.478Z,21.7
2023-02-09T22:34:03.465Z,24.2
2023-02-09T22:37:05.413Z,22.4
2023-02-09T22:40:07.376Z,20.5
2023-02-09T22:43:09.343Z,21.6
2023-02-09T22:46:11.336Z,20.6
2023-02-09T22:49:13.284Z,20.4
2023-02-09T22:52:15.239Z,23.8
2023-02-09T22:55:17.242Z,23.2
2023-02-09T22:58:19.188Z,20.8
2023-02-09T23:01:21.242Z,21.2
2023-02-09T23:04:23.161Z,20.7
2023-02-09T23:07:25.078Z,22.4
2023-02-09T23:10:27.051Z,20.4
2023-02-09T23:13:29.008Z,18.9
2023-02-09T23:16:30.960Z,22.2
2023-02-09T23:19:32.929Z,22.6
2023-02-09T23:22:34.880Z,19.8
2023-02-09T23:25:36.842Z,22.9
2023-02-09T23:28:38.798Z,20.9
2023-02-09T23:31:40.766Z,21
2023-02-09T23:34:42.708Z,22.6
2023-02-09T23:37:44.665Z,22.5
2023-02-09T23:40:46.641Z,20.1
2023-02-09T23:43:48.738Z,20.8
2023-02-09T23:46:50.560Z,24.8
2023-02-09T23:49:52.543Z,21.6
2023-02-09T23:52:54.498Z,20.7
2023-02-09T23:55:56.456Z,23.6
2023-02-09T23:58:58.424Z,20.9
